sensor_id;sensor_type;location;lat;lon;timestamp;temperature;humidity
29551;DHT22;16488;52.396;10.696;2024-01-15T00:00:19;1.40;99.90
29551;DHT22;16488;52.396;10.696;2024-01-15T00:02:47;1.40;99.90
29551;DHT22;16488;52.396;10.696;2024-01-15T00:05:12;1.30;99.90
29551;DHT22;16488;52.396;10.696;2024-01-15T00:07:38;1.30;99.90
29551;DHT22;16488;52.396;10.696;2024-01-15T00:10:04;1.30;99.90
29551;DHT22;16488;52.396;10.696;2024-01-15T00:12:30;1.40;99.90
29551;DHT22;16488;52.396;10.696;2024-01-15T00:14:55;1.40;99.90
29551;DHT22;16488;52.396;10.696;2024-01-15T00:17:21;1.40;99.90
29551;DHT22;16488;52.396;10.696;2024-01-15T00:19:46;1.40;99.90
29551;DHT22;16488;52.396;10.696;2024-01-15T00:22:12;1.40;99.90
29551;DHT22;16488;52.396;10.696;2024-01-15T00:24:38;1.40;99.90
29551;DHT22;16488;52.396;10.696;2024-01-15T00:27:03;1.40;99.90
29551;DHT22;16488;52.396;10.696;2024-01-15T00:29:29;1.40;99.90
29551;DHT22;16488;52.396;10.696;2024-01-15T00:31:55;1.40;99.90
29551;DHT22;16488;52.396;10.696;2024-01-15T00:34:20;1.40;99.90
29551;DHT22;16488;52.396;10.696;2024-01-15T00:36:46;1.50;99.90
29551;DHT22;16488;52.396;10.696;2024-01-15T00:39:11;1.50;99.90
29551;DHT22;16488;52.396;10.696;2024-01-15T00:41:37;1.50;99.90
29551;DHT22;16488;52.396;10.696;2024-01-15T00:44:03;1.50;99.90
29551;DHT22;16488;52.396;10.696;2024-01-15T00:46:29;1.60;99.90
29551;DHT22;16488;52.396;10.696;2024-01-15T00:48:54;1.60;99.90
29551;DHT22;16488;52.396;10.696;2024-01-15T00:51:20;1.70;99.90
29551;DHT22;16488;52.396;10.696;2024-01-15T00:53:46;1.70;99.90
29551;DHT22;16488;52.396;10.696;2024-01-15T00:56:11;1.60;99.90
29551;DHT22;16488;52.396;10.696;2024-01-15T00:58:37;1.70;99.90
29551;DHT22;16488;52.396;10.696;2024-01-15T01:01:03;1.60;99.90
29551;DHT22;16488;52.396;10.696;2024-01-15T01:03:28;1.60;99.90
29551;DHT22;16488;52.396;10.696;2024-01-15T01:05:54;1.60;99.90
29551;DHT22;16488;52.396;10.696;2024-01-15T01:08:20;1.60;99.90
29551;DHT22;16488;52.396;10.696;2024-01-15T01:10:45;1.60;99.90
29551;DHT22;16488;52.396;10.696;2024-01-15T01:13:11;1.60;99.90
29551;DHT22;16488;52.396;10.696;2024-01-15T01:15:37;1.60;99.90
29551;DHT22;16488;52.396;10.696;2024-01-15T01:18:04;1.60;99.90
29551;DHT22;16488;52.396;10.696;2024-01-15T01:20:30;1.60;99.90
29551;DHT22;16488;52.396;10.696;2024-01-15T01:22:56;1.50;99.90
29551;DHT22;16488;52.396;10.696;2024-01-15T01:25:21;1.50;99.90
29551;DHT22;16488;52.396;10.696;2024-01-15T01:27:47;1.40;99.90
29551;DHT22;16488;52.396;10.696;2024-01-15T01:30:13;1.30;99.90
29551;DHT22;16488;52.396;10.696;2024-01-15T01:32:38;1.30;99.90
29551;DHT22;16488;52.396;10.696;2024-01-15T01:35:04;1.40;99.90
29551;DHT22;16488;52.396;10.696;2024-01-15T01:37:30;1.40;99.90
29551;DHT22;16488;52.396;10.696;2024-01-15T01:39:55;1.40;99.90
29551;DHT22;16488;52.396;10.696;2024-01-15T01:42:21;1.50;99.90
29551;DHT22;16488;52.396;10.696;2024-01-15T01:44:47;1.50;99.90
29551;DHT22;16488;52.396;10.696;2024-01-15T01:47:13;1.60;99.90
29551;DHT22;16488;52.396;10.696;2024-01-15T01:49:40;1.60;99.90
29551;DHT22;16488;52.396;10.696;2024-01-15T01:52:06;1.60;99.90
29551;DHT22;16488;52.396;10.696;2024-01-15T01:54:33;1.60;99.90
29551;DHT22;16488;52.396;10.696;2024-01-15T01:56:59;1.60;99.90
29551;DHT22;16488;52.396;10.696;2024-01-15T01:59:27;1.60;99.90
29551;DHT22;16488;52.396;10.696;2024-01-15T02:01:54;1.60;99.90
29551;DHT22;16488;52.396;10.696;2024-01-15T02:04:23;1.70;99.90
29551;DHT22;16488;52.396;10.696;2024-01-15T02:06:50;1.70;99.90
29551;DHT22;16488;52.396;10.696;2024-01-15T02:09:16;1.70;99.90
29551;DHT22;16488;52.396;10.696;2024-01-15T02:11:42;1.70;99.90
29551;DHT22;16488;52.396;10.696;2024-01-15T02:14:09;1.70;99.90
29551;DHT22;16488;52.396;10.696;2024-01-15T02:16:35;1.60;99.90
29551;DHT22;16488;52.396;10.696;2024-01-15T02:19:01;1.60;99.90
29551;DHT22;16488;52.396;10.696;2024-01-15T02:21:27;1.70;99.90
29551;DHT22;16488;52.396;10.696;2024-01-15T02:23:54;1.60;99.90
29551;DHT22;16488;52.396;10.696;2024-01-15T02:26:21;1.60;99.90
29551;DHT22;16488;52.396;10.696;2024-01-15T02:28:47;1.70;99.90
29551;DHT22;16488;52.396;10.696;2024-01-15T02:31:13;1.70;99.90
29551;DHT22;16488;52.396;10.696;2024-01-15T02:33:39;1.70;99.90
29551;DHT22;16488;52.396;10.696;2024-01-15T02:36:07;1.80;99.90
29551;DHT22;16488;52.396;10.696;2024-01-15T02:38:33;1.80;99.90
29551;DHT22;16488;52.396;10.696;2024-01-15T02:40:58;1.80;99.90
29551;DHT22;16488;52.396;10.696;2024-01-15T02:43:24;1.80;99.90
29551;DHT22;16488;52.396;10.696;2024-01-15T02:45:50;1.90;99.90
29551;DHT22;16488;52.396;10.696;2024-01-15T02:48:15;1.90;99.90
29551;DHT22;16488;52.396;10.696;2024-01-15T02:50:41;1.90;99.90
29551;DHT22;16488;52.396;10.696;2024-01-15T02:53:07;1.90;99.90
29551;DHT22;16488;52.396;10.696;2024-01-15T02:55:32;1.90;99.90
29551;DHT22;16488;52.396;10.696;2024-01-15T02:57:59;1.90;99.90
29551;DHT22;16488;52.396;10.696;2024-01-15T03:00:24;1.90;99.90
29551;DHT22;16488;52.396;10.696;2024-01-15T03:02:51;2.00;99.90
29551;DHT22;16488;52.396;10.696;2024-01-15T03:05:16;2.00;99.90
29551;DHT22;16488;52.396;10.696;2024-01-15T03:07:42;2.00;99.90
29551;DHT22;16488;52.396;10.696;2024-01-15T03:10:09;2.00;99.90
29551;DHT22;16488;52.396;10.696;2024-01-15T03:12:34;2.10;99.90
29551;DHT22;16488;52.396;10.696;2024-01-15T03:15:00;2.10;99.90
29551;DHT22;16488;52.396;10.696;2024-01-15T03:17:26;2.10;99.90
29551;DHT22;16488;52.396;10.696;2024-01-15T03:19:51;2.10;99.90
29551;DHT22;16488;52.396;10.696;2024-01-15T03:22:17;2.20;99.90
29551;DHT22;16488;52.396;10.696;2024-01-15T03:24:43;2.10;99.90
29551;DHT22;16488;52.396;10.696;2024-01-15T03:27:09;2.10;99.90
29551;DHT22;16488;52.396;10.696;2024-01-15T03:29:35;2.10;99.90
29551;DHT22;16488;52.396;10.696;2024-01-15T03:32:00;2.00;99.90
29551;DHT22;16488;52.396;10.696;2024-01-15T03:34:26;2.00;99.90
29551;DHT22;16488;52.396;10.696;2024-01-15T03:36:52;2.00;99.90
29551;DHT22;16488;52.396;10.696;2024-01-15T03:39:17;2.00;99.90
29551;DHT22;16488;52.396;10.696;2024-01-15T03:41:43;2.10;99.90
29551;DHT22;16488;52.396;10.696;2024-01-15T03:44:09;2.10;99.90
29551;DHT22;16488;52.396;10.696;2024-01-15T03:46:34;2.10;99.90
29551;DHT22;16488;52.396;10.696;2024-01-15T03:49:00;2.20;99.90
29551;DHT22;16488;52.396;10.696;2024-01-15T03:51:25;2.10;99.90
29551;DHT22;16488;52.396;10.696;2024-01-15T03:53:51;2.10;99.90
29551;DHT22;16488;52.396;10.696;2024-01-15T03:56:17;2.00;99.90
29551;DHT22;16488;52.396;10.696;2024-01-15T03:58:42;2.00;99.90
29551;DHT22;16488;52.396;10.696;2024-01-15T04:01:09;1.90;99.90
29551;DHT22;16488;52.396;10.696;2024-01-15T04:03:35;2.00;99.90
29551;DHT22;16488;52.396;10.696;2024-01-15T04:06:01;2.00;99.90
29551;DHT22;16488;52.396;10.696;2024-01-15T04:08:27;2.10;99.90
29551;DHT22;16488;52.396;10.696;2024-01-15T04:10:52;2.10;99.90
29551;DHT22;16488;52.396;10.696;2024-01-15T04:13:18;2.10;99.90
29551;DHT22;16488;52.396;10.696;2024-01-15T04:15:43;2.20;99.90
29551;DHT22;16488;52.396;10.696;2024-01-15T04:18:09;2.20;99.90
29551;DHT22;16488;52.396;10.696;2024-01-15T04:20:35;2.20;99.90
29551;DHT22;16488;52.396;10.696;2024-01-15T04:23:00;2.10;99.90
29551;DHT22;16488;52.396;10.696;2024-01-15T04:25:26;2.10;99.90
29551;DHT22;16488;52.396;10.696;2024-01-15T04:27:51;2.10;99.90
29551;DHT22;16488;52.396;10.696;2024-01-15T04:30:17;2.00;99.90
29551;DHT22;16488;52.396;10.696;2024-01-15T04:32:43;2.00;99.90
29551;DHT22;16488;52.396;10.696;2024-01-15T04:35:08;2.10;99.90
29551;DHT22;16488;52.396;10.696;2024-01-15T04:37:34;2.00;99.90
29551;DHT22;16488;52.396;10.696;2024-01-15T04:39:59;2.00;99.90
29551;DHT22;16488;52.396;10.696;2024-01-15T04:42:25;2.00;99.90
29551;DHT22;16488;52.396;10.696;2024-01-15T04:44:51;1.90;99.90
29551;DHT22;16488;52.396;10.696;2024-01-15T04:47:17;1.70;99.90
29551;DHT22;16488;52.396;10.696;2024-01-15T04:49:42;1.60;99.90
29551;DHT22;16488;52.396;10.696;2024-01-15T04:52:08;1.60;99.90
29551;DHT22;16488;52.396;10.696;2024-01-15T04:54:36;1.70;99.90
29551;DHT22;16488;52.396;10.696;2024-01-15T04:57:01;1.70;99.90
29551;DHT22;16488;52.396;10.696;2024-01-15T04:59:27;1.80;99.90
29551;DHT22;16488;52.396;10.696;2024-01-15T05:01:53;1.80;99.90
29551;DHT22;16488;52.396;10.696;2024-01-15T05:04:19;1.90;99.90
29551;DHT22;16488;52.396;10.696;2024-01-15T05:06:44;1.90;99.90
29551;DHT22;16488;52.396;10.696;2024-01-15T05:09:10;1.90;99.90
29551;DHT22;16488;52.396;10.696;2024-01-15T05:11:35;1.90;99.90
29551;DHT22;16488;52.396;10.696;2024-01-15T05:14:01;1.80;99.90
29551;DHT22;16488;52.396;10.696;2024-01-15T05:16:27;1.80;99.90
29551;DHT22;16488;52.396;10.696;2024-01-15T05:18:52;1.90;99.90
29551;DHT22;16488;52.396;10.696;2024-01-15T05:21:18;1.90;99.90
29551;DHT22;16488;52.396;10.696;2024-01-15T05:23:44;1.90;99.90
29551;DHT22;16488;52.396;10.696;2024-01-15T05:26:09;2.00;99.90
29551;DHT22;16488;52.396;10.696;2024-01-15T05:28:35;2.00;99.90
29551;DHT22;16488;52.396;10.696;2024-01-15T05:31:01;2.00;99.90
29551;DHT22;16488;52.396;10.696;2024-01-15T05:33:26;2.00;99.90
29551;DHT22;16488;52.396;10.696;2024-01-15T05:35:52;2.00;99.90
29551;DHT22;16488;52.396;10.696;2024-01-15T05:38:19;2.00;99.90
29551;DHT22;16488;52.396;10.696;2024-01-15T05:40:44;2.00;99.90
29551;DHT22;16488;52.396;10.696;2024-01-15T05:43:10;2.00;99.90
29551;DHT22;16488;52.396;10.696;2024-01-15T05:45:37;2.00;99.90
29551;DHT22;16488;52.396;10.696;2024-01-15T05:48:03;2.00;99.90
29551;DHT22;16488;52.396;10.696;2024-01-15T05:50:29;1.90;99.90
29551;DHT22;16488;52.396;10.696;2024-01-15T05:52:55;1.90;99.90
29551;DHT22;16488;52.396;10.696;2024-01-15T05:55:20;1.90;99.90
29551;DHT22;16488;52.396;10.696;2024-01-15T05:57:46;1.80;99.90
29551;DHT22;16488;52.396;10.696;2024-01-15T06:00:12;1.70;99.90
29551;DHT22;16488;52.396;10.696;2024-01-15T06:02:38;1.70;99.90
29551;DHT22;16488;52.396;10.696;2024-01-15T06:05:04;1.70;99.90
29551;DHT22;16488;52.396;10.696;2024-01-15T06:07:29;1.70;99.90
29551;DHT22;16488;52.396;10.696;2024-01-15T06:09:55;1.70;99.90
29551;DHT22;16488;52.396;10.696;2024-01-15T06:12:22;1.70;99.90
29551;DHT22;16488;52.396;10.696;2024-01-15T06:14:48;1.70;99.90
29551;DHT22;16488;52.396;10.696;2024-01-15T06:17:14;1.80;99.90
29551;DHT22;16488;52.396;10.696;2024-01-15T06:19:39;1.80;99.90
29551;DHT22;16488;52.396;10.696;2024-01-15T06:22:05;1.80;99.90
29551;DHT22;16488;52.396;10.696;2024-01-15T06:24:31;1.90;99.90
29551;DHT22;16488;52.396;10.696;2024-01-15T06:26:56;1.80;99.90
29551;DHT22;16488;52.396;10.696;2024-01-15T06:29:25;1.70;99.90
29551;DHT22;16488;52.396;10.696;2024-01-15T06:31:50;1.70;99.90
29551;DHT22;16488;52.396;10.696;2024-01-15T06:34:16;1.60;99.90
29551;DHT22;16488;52.396;10.696;2024-01-15T06:36:42;1.70;99.90
29551;DHT22;16488;52.396;10.696;2024-01-15T06:39:07;1.70;99.90
29551;DHT22;16488;52.396;10.696;2024-01-15T06:41:33;1.70;99.90
29551;DHT22;16488;52.396;10.696;2024-01-15T06:43:58;1.70;99.90
29551;DHT22;16488;52.396;10.696;2024-01-15T06:46:24;1.70;99.90
29551;DHT22;16488;52.396;10.696;2024-01-15T06:48:50;1.80;99.90
29551;DHT22;16488;52.396;10.696;2024-01-15T06:51:16;1.70;99.90
29551;DHT22;16488;52.396;10.696;2024-01-15T06:53:42;1.70;99.90
29551;DHT22;16488;52.396;10.696;2024-01-15T06:56:08;1.70;99.90
29551;DHT22;16488;52.396;10.696;2024-01-15T06:58:33;1.70;99.90
29551;DHT22;16488;52.396;10.696;2024-01-15T07:00:59;1.60;99.90
29551;DHT22;16488;52.396;10.696;2024-01-15T07:03:25;1.60;99.90
29551;DHT22;16488;52.396;10.696;2024-01-15T07:05:50;1.60;99.90
29551;DHT22;16488;52.396;10.696;2024-01-15T07:08:16;1.60;99.90
29551;DHT22;16488;52.396;10.696;2024-01-15T07:10:41;1.50;99.90
29551;DHT22;16488;52.396;10.696;2024-01-15T07:13:07;1.50;99.90
29551;DHT22;16488;52.396;10.696;2024-01-15T07:15:33;1.50;99.90
29551;DHT22;16488;52.396;10.696;2024-01-15T07:17:58;1.60;99.90
29551;DHT22;16488;52.396;10.696;2024-01-15T07:20:24;1.60;99.90
29551;DHT22;16488;52.396;10.696;2024-01-15T07:22:49;1.60;99.90
29551;DHT22;16488;52.396;10.696;2024-01-15T07:25:16;1.60;99.90
29551;DHT22;16488;52.396;10.696;2024-01-15T07:27:41;1.60;99.90
29551;DHT22;16488;52.396;10.696;2024-01-15T07:30:11;1.70;99.90
29551;DHT22;16488;52.396;10.696;2024-01-15T07:32:37;1.70;99.90
29551;DHT22;16488;52.396;10.696;2024-01-15T07:35:03;1.60;99.90
29551;DHT22;16488;52.396;10.696;2024-01-15T07:37:28;1.60;99.90
29551;DHT22;16488;52.396;10.696;2024-01-15T07:39:54;1.60;99.90
29551;DHT22;16488;52.396;10.696;2024-01-15T07:42:19;1.60;99.90
29551;DHT22;16488;52.396;10.696;2024-01-15T07:44:45;1.70;99.90
29551;DHT22;16488;52.396;10.696;2024-01-15T07:47:11;1.70;99.90
29551;DHT22;16488;52.396;10.696;2024-01-15T07:49:36;1.70;99.90
29551;DHT22;16488;52.396;10.696;2024-01-15T07:52:02;1.70;99.90
29551;DHT22;16488;52.396;10.696;2024-01-15T07:54:28;1.70;99.90
29551;DHT22;16488;52.396;10.696;2024-01-15T07:56:59;1.70;99.90
29551;DHT22;16488;52.396;10.696;2024-01-15T07:59:26;1.70;99.90
29551;DHT22;16488;52.396;10.696;2024-01-15T08:01:52;1.60;99.90
29551;DHT22;16488;52.396;10.696;2024-01-15T08:04:18;1.60;99.90
29551;DHT22;16488;52.396;10.696;2024-01-15T08:06:43;1.60;99.90
29551;DHT22;16488;52.396;10.696;2024-01-15T08:09:09;1.60;99.90
29551;DHT22;16488;52.396;10.696;2024-01-15T08:11:35;1.60;99.90
29551;DHT22;16488;52.396;10.696;2024-01-15T08:14:01;1.60;99.90
29551;DHT22;16488;52.396;10.696;2024-01-15T08:16:26;1.50;99.90
29551;DHT22;16488;52.396;10.696;2024-01-15T08:18:53;1.50;99.90
29551;DHT22;16488;52.396;10.696;2024-01-15T08:21:19;1.40;99.90
29551;DHT22;16488;52.396;10.696;2024-01-15T08:23:44;1.50;99.90
29551;DHT22;16488;52.396;10.696;2024-01-15T08:26:10;1.50;99.90
29551;DHT22;16488;52.396;10.696;2024-01-15T08:28:36;1.50;99.90
29551;DHT22;16488;52.396;10.696;2024-01-15T08:31:02;1.60;99.90
29551;DHT22;16488;52.396;10.696;2024-01-15T08:33:28;1.70;99.90
29551;DHT22;16488;52.396;10.696;2024-01-15T08:35:54;1.60;99.90
29551;DHT22;16488;52.396;10.696;2024-01-15T08:38:20;1.70;99.90
29551;DHT22;16488;52.396;10.696;2024-01-15T08:40:45;1.70;99.90
29551;DHT22;16488;52.396;10.696;2024-01-15T08:43:11;1.80;99.90
29551;DHT22;16488;52.396;10.696;2024-01-15T08:45:37;1.80;99.90
29551;DHT22;16488;52.396;10.696;2024-01-15T08:48:02;1.80;99.90
29551;DHT22;16488;52.396;10.696;2024-01-15T08:50:29;1.70;99.90
29551;DHT22;16488;52.396;10.696;2024-01-15T08:52:55;1.70;99.90
29551;DHT22;16488;52.396;10.696;2024-01-15T08:55:21;1.70;99.90
29551;DHT22;16488;52.396;10.696;2024-01-15T08:57:48;1.60;99.90
29551;DHT22;16488;52.396;10.696;2024-01-15T09:00:14;1.60;99.90
29551;DHT22;16488;52.396;10.696;2024-01-15T09:02:39;1.70;99.90
29551;DHT22;16488;52.396;10.696;2024-01-15T09:05:05;1.60;99.90
29551;DHT22;16488;52.396;10.696;2024-01-15T09:07:32;1.50;99.90
29551;DHT22;16488;52.396;10.696;2024-01-15T09:09:58;1.50;99.90
29551;DHT22;16488;52.396;10.696;2024-01-15T09:12:27;1.50;99.90
29551;DHT22;16488;52.396;10.696;2024-01-15T09:14:53;1.60;99.90
29551;DHT22;16488;52.396;10.696;2024-01-15T09:17:20;1.50;99.90
29551;DHT22;16488;52.396;10.696;2024-01-15T09:19:47;1.40;99.90
29551;DHT22;16488;52.396;10.696;2024-01-15T09:22:13;1.40;99.90
29551;DHT22;16488;52.396;10.696;2024-01-15T09:24:42;1.40;99.90
29551;DHT22;16488;52.396;10.696;2024-01-15T09:27:08;1.50;99.90
29551;DHT22;16488;52.396;10.696;2024-01-15T09:29:33;1.40;99.90
29551;DHT22;16488;52.396;10.696;2024-01-15T09:31:59;1.40;99.90
29551;DHT22;16488;52.396;10.696;2024-01-15T09:34:25;1.50;99.90
29551;DHT22;16488;52.396;10.696;2024-01-15T09:36:50;1.50;99.90
29551;DHT22;16488;52.396;10.696;2024-01-15T09:39:16;1.60;99.90
29551;DHT22;16488;52.396;10.696;2024-01-15T09:41:42;1.60;99.90
29551;DHT22;16488;52.396;10.696;2024-01-15T09:44:08;1.60;99.90
29551;DHT22;16488;52.396;10.696;2024-01-15T09:46:36;1.60;99.90
29551;DHT22;16488;52.396;10.696;2024-01-15T09:49:02;1.60;99.90
29551;DHT22;16488;52.396;10.696;2024-01-15T09:51:31;1.60;99.90
29551;DHT22;16488;52.396;10.696;2024-01-15T09:53:57;1.60;99.90
29551;DHT22;16488;52.396;10.696;2024-01-15T09:56:23;1.50;99.90
29551;DHT22;16488;52.396;10.696;2024-01-15T09:58:50;1.50;99.90
29551;DHT22;16488;52.396;10.696;2024-01-15T10:01:17;1.40;99.90
29551;DHT22;16488;52.396;10.696;2024-01-15T10:03:42;1.40;99.90
29551;DHT22;16488;52.396;10.696;2024-01-15T10:06:09;1.40;99.90
29551;DHT22;16488;52.396;10.696;2024-01-15T10:08:36;1.40;99.90
29551;DHT22;16488;52.396;10.696;2024-01-15T10:11:02;1.50;99.90
29551;DHT22;16488;52.396;10.696;2024-01-15T10:13:30;1.50;99.90
29551;DHT22;16488;52.396;10.696;2024-01-15T10:15:56;1.70;99.90
29551;DHT22;16488;52.396;10.696;2024-01-15T10:18:22;1.80;99.90
29551;DHT22;16488;52.396;10.696;2024-01-15T10:20:47;1.80;99.90
29551;DHT22;16488;52.396;10.696;2024-01-15T10:23:14;1.80;99.90
29551;DHT22;16488;52.396;10.696;2024-01-15T10:25:42;2.00;99.90
29551;DHT22;16488;52.396;10.696;2024-01-15T10:28:07;2.00;99.90
29551;DHT22;16488;52.396;10.696;2024-01-15T10:30:33;2.10;99.90
29551;DHT22;16488;52.396;10.696;2024-01-15T10:33:02;2.10;99.90
29551;DHT22;16488;52.396;10.696;2024-01-15T10:35:34;2.20;99.90
29551;DHT22;16488;52.396;10.696;2024-01-15T10:38:00;2.20;99.90
29551;DHT22;16488;52.396;10.696;2024-01-15T10:40:26;2.30;99.90
29551;DHT22;16488;52.396;10.696;2024-01-15T10:42:52;2.30;99.90
29551;DHT22;16488;52.396;10.696;2024-01-15T10:45:18;2.30;99.90
29551;DHT22;16488;52.396;10.696;2024-01-15T10:47:44;2.30;99.90
29551;DHT22;16488;52.396;10.696;2024-01-15T10:50:10;2.30;99.90
29551;DHT22;16488;52.396;10.696;2024-01-15T10:52:37;2.30;99.90
29551;DHT22;16488;52.396;10.696;2024-01-15T10:55:04;2.30;99.90
29551;DHT22;16488;52.396;10.696;2024-01-15T10:57:31;2.30;99.90
29551;DHT22;16488;52.396;10.696;2024-01-15T10:59:58;2.30;99.90
29551;DHT22;16488;52.396;10.696;2024-01-15T11:02:24;2.40;99.90
29551;DHT22;16488;52.396;10.696;2024-01-15T11:04:50;2.40;99.90
29551;DHT22;16488;52.396;10.696;2024-01-15T11:07:15;2.40;99.90
29551;DHT22;16488;52.396;10.696;2024-01-15T11:09:41;2.40;99.90
29551;DHT22;16488;52.396;10.696;2024-01-15T11:12:10;2.40;99.90
29551;DHT22;16488;52.396;10.696;2024-01-15T11:14:44;2.40;99.90
29551;DHT22;16488;52.396;10.696;2024-01-15T11:17:11;2.40;99.90
29551;DHT22;16488;52.396;10.696;2024-01-15T11:19:38;2.40;99.90
29551;DHT22;16488;52.396;10.696;2024-01-15T11:22:10;2.40;99.90
29551;DHT22;16488;52.396;10.696;2024-01-15T11:24:39;2.40;99.90
29551;DHT22;16488;52.396;10.696;2024-01-15T11:27:05;2.40;99.90
29551;DHT22;16488;52.396;10.696;2024-01-15T11:29:36;2.50;99.90
29551;DHT22;16488;52.396;10.696;2024-01-15T11:32:09;2.50;99.90
29551;DHT22;16488;52.396;10.696;2024-01-15T11:34:57;2.40;99.90
29551;DHT22;16488;52.396;10.696;2024-01-15T11:37:25;2.40;99.90
29551;DHT22;16488;52.396;10.696;2024-01-15T11:39:52;2.40;99.90
29551;DHT22;16488;52.396;10.696;2024-01-15T11:42:19;2.30;99.90
29551;DHT22;16488;52.396;10.696;2024-01-15T11:44:45;2.30;99.90
29551;DHT22;16488;52.396;10.696;2024-01-15T11:47:12;2.20;99.90
29551;DHT22;16488;52.396;10.696;2024-01-15T11:49:57;2.30;99.90
29551;DHT22;16488;52.396;10.696;2024-01-15T11:52:23;2.30;99.90
29551;DHT22;16488;52.396;10.696;2024-01-15T11:55:02;2.30;99.90
29551;DHT22;16488;52.396;10.696;2024-01-15T11:57:46;2.20;99.90
29551;DHT22;16488;52.396;10.696;2024-01-15T12:00:13;2.20;99.90
29551;DHT22;16488;52.396;10.696;2024-01-15T12:02:44;2.20;99.90
29551;DHT22;16488;52.396;10.696;2024-01-15T12:05:10;2.20;99.90
29551;DHT22;16488;52.396;10.696;2024-01-15T12:07:40;2.30;99.90
29551;DHT22;16488;52.396;10.696;2024-01-15T12:10:13;2.20;99.90
29551;DHT22;16488;52.396;10.696;2024-01-15T12:12:57;2.10;99.90
29551;DHT22;16488;52.396;10.696;2024-01-15T12:15:25;2.10;99.90
29551;DHT22;16488;52.396;10.696;2024-01-15T12:17:50;2.10;99.90
29551;DHT22;16488;52.396;10.696;2024-01-15T12:20:17;2.00;99.90
29551;DHT22;16488;52.396;10.696;2024-01-15T12:22:43;2.10;99.90
29551;DHT22;16488;52.396;10.696;2024-01-15T12:25:09;2.10;99.90
29551;DHT22;16488;52.396;10.696;2024-01-15T12:27:35;2.00;99.90
29551;DHT22;16488;52.396;10.696;2024-01-15T12:30:01;2.10;99.90
29551;DHT22;16488;52.396;10.696;2024-01-15T12:32:26;2.10;99.90
29551;DHT22;16488;52.396;10.696;2024-01-15T12:34:52;2.20;99.90
29551;DHT22;16488;52.396;10.696;2024-01-15T12:37:19;2.30;99.90
29551;DHT22;16488;52.396;10.696;2024-01-15T12:39:47;2.30;99.90
29551;DHT22;16488;52.396;10.696;2024-01-15T12:42:16;2.40;99.90
29551;DHT22;16488;52.396;10.696;2024-01-15T12:44:43;2.40;99.90
29551;DHT22;16488;52.396;10.696;2024-01-15T12:47:10;2.40;99.90
29551;DHT22;16488;52.396;10.696;2024-01-15T12:49:38;2.40;99.90
29551;DHT22;16488;52.396;10.696;2024-01-15T12:52:08;2.40;99.90
29551;DHT22;16488;52.396;10.696;2024-01-15T12:54:34;2.40;99.90
29551;DHT22;16488;52.396;10.696;2024-01-15T12:57:00;2.50;99.90
29551;DHT22;16488;52.396;10.696;2024-01-15T12:59:26;2.50;99.90
29551;DHT22;16488;52.396;10.696;2024-01-15T13:01:51;2.50;99.90
29551;DHT22;16488;52.396;10.696;2024-01-15T13:04:24;2.60;99.90
29551;DHT22;16488;52.396;10.696;2024-01-15T13:06:50;2.70;99.90
29551;DHT22;16488;52.396;10.696;2024-01-15T13:09:17;2.70;99.90
29551;DHT22;16488;52.396;10.696;2024-01-15T13:11:43;2.70;99.90
29551;DHT22;16488;52.396;10.696;2024-01-15T13:14:09;2.60;99.90
29551;DHT22;16488;52.396;10.696;2024-01-15T13:16:35;2.50;99.90
29551;DHT22;16488;52.396;10.696;2024-01-15T13:19:00;2.50;99.90
29551;DHT22;16488;52.396;10.696;2024-01-15T13:21:26;2.50;99.90
29551;DHT22;16488;52.396;10.696;2024-01-15T13:23:52;2.50;99.90
29551;DHT22;16488;52.396;10.696;2024-01-15T13:26:17;2.40;99.90
29551;DHT22;16488;52.396;10.696;2024-01-15T13:28:44;2.50;99.90
29551;DHT22;16488;52.396;10.696;2024-01-15T13:31:10;2.50;99.90
29551;DHT22;16488;52.396;10.696;2024-01-15T13:33:35;2.40;99.90
29551;DHT22;16488;52.396;10.696;2024-01-15T13:36:01;2.40;99.90
29551;DHT22;16488;52.396;10.696;2024-01-15T13:38:28;2.30;99.90
29551;DHT22;16488;52.396;10.696;2024-01-15T13:40:56;2.20;99.90
29551;DHT22;16488;52.396;10.696;2024-01-15T13:43:22;2.20;99.90
29551;DHT22;16488;52.396;10.696;2024-01-15T13:45:48;2.30;99.90
29551;DHT22;16488;52.396;10.696;2024-01-15T13:48:14;2.40;99.90
29551;DHT22;16488;52.396;10.696;2024-01-15T13:50:40;2.40;99.90
29551;DHT22;16488;52.396;10.696;2024-01-15T13:53:05;2.40;99.90
29551;DHT22;16488;52.396;10.696;2024-01-15T13:55:32;2.40;99.90
29551;DHT22;16488;52.396;10.696;2024-01-15T13:57:57;2.40;99.90
29551;DHT22;16488;52.396;10.696;2024-01-15T14:00:23;2.40;99.90
29551;DHT22;16488;52.396;10.696;2024-01-15T14:02:49;2.30;99.90
29551;DHT22;16488;52.396;10.696;2024-01-15T14:05:14;2.30;99.90
29551;DHT22;16488;52.396;10.696;2024-01-15T14:07:41;2.30;99.90
29551;DHT22;16488;52.396;10.696;2024-01-15T14:10:09;2.30;99.90
29551;DHT22;16488;52.396;10.696;2024-01-15T14:12:35;2.30;99.90
29551;DHT22;16488;52.396;10.696;2024-01-15T14:15:02;2.10;99.90
29551;DHT22;16488;52.396;10.696;2024-01-15T14:17:28;2.10;99.90
29551;DHT22;16488;52.396;10.696;2024-01-15T14:19:54;2.00;99.90
29551;DHT22;16488;52.396;10.696;2024-01-15T14:22:19;1.90;99.90
29551;DHT22;16488;52.396;10.696;2024-01-15T14:24:45;1.80;99.90
29551;DHT22;16488;52.396;10.696;2024-01-15T14:27:11;1.70;99.90
29551;DHT22;16488;52.396;10.696;2024-01-15T14:29:36;1.70;99.90
29551;DHT22;16488;52.396;10.696;2024-01-15T14:32:02;1.70;99.90
29551;DHT22;16488;52.396;10.696;2024-01-15T14:34:28;1.60;99.90
29551;DHT22;16488;52.396;10.696;2024-01-15T14:36:54;1.50;99.90
29551;DHT22;16488;52.396;10.696;2024-01-15T14:39:21;1.40;99.90
29551;DHT22;16488;52.396;10.696;2024-01-15T14:41:46;1.40;99.90
29551;DHT22;16488;52.396;10.696;2024-01-15T14:44:12;1.40;99.90
29551;DHT22;16488;52.396;10.696;2024-01-15T14:46:38;1.40;99.90
29551;DHT22;16488;52.396;10.696;2024-01-15T14:49:04;1.40;99.90
29551;DHT22;16488;52.396;10.696;2024-01-15T14:51:30;1.30;99.90
29551;DHT22;16488;52.396;10.696;2024-01-15T14:53:55;1.40;99.90
29551;DHT22;16488;52.396;10.696;2024-01-15T14:56:21;1.30;99.90
29551;DHT22;16488;52.396;10.696;2024-01-15T14:58:47;1.30;99.90
29551;DHT22;16488;52.396;10.696;2024-01-15T15:01:12;1.30;99.90
29551;DHT22;16488;52.396;10.696;2024-01-15T15:03:39;1.30;99.90
29551;DHT22;16488;52.396;10.696;2024-01-15T15:06:04;1.30;99.90
29551;DHT22;16488;52.396;10.696;2024-01-15T15:08:33;1.30;99.90
29551;DHT22;16488;52.396;10.696;2024-01-15T15:10:58;1.30;99.90
29551;DHT22;16488;52.396;10.696;2024-01-15T15:13:24;1.30;99.90
29551;DHT22;16488;52.396;10.696;2024-01-15T15:15:51;1.30;99.90
29551;DHT22;16488;52.396;10.696;2024-01-15T15:18:17;1.30;99.90
29551;DHT22;16488;52.396;10.696;2024-01-15T15:20:43;1.30;99.90
29551;DHT22;16488;52.396;10.696;2024-01-15T15:23:08;1.30;99.90